sensor_id;sensor_type;location;lat;lon;timestamp;P1;durP1;ratioP1;P2;durP2;ratioP2
14276;SDS011;7222;57.346;12.150;2023-04-24T00:01:04;23.70;;;18.07;;
14276;SDS011;7222;57.346;12.150;2023-04-24T00:03:32;31.23;;;21.40;;
14276;SDS011;7222;57.346;12.150;2023-04-24T00:05:59;25.97;;;19.27;;
14276;SDS011;7222;57.346;12.150;2023-04-24T00:08:28;33.33;;;22.93;;
14276;SDS011;7222;57.346;12.150;2023-04-24T00:10:55;27.43;;;20.47;;
14276;SDS011;7222;57.346;12.150;2023-04-24T00:13:22;28.37;;;20.47;;
14276;SDS011;7222;57.346;12.150;2023-04-24T00:15:49;28.77;;;21.40;;
14276;SDS011;7222;57.346;12.150;2023-04-24T00:18:16;32.87;;;22.23;;
14276;SDS011;7222;57.346;12.150;2023-04-24T00:20:43;30.10;;;21.57;;
14276;SDS011;7222;57.346;12.150;2023-04-24T00:23:11;34.13;;;24.30;;
14276;SDS011;7222;57.346;12.150;2023-04-24T00:25:40;28.33;;;21.27;;
14276;SDS011;7222;57.346;12.150;2023-04-24T00:28:07;31.60;;;22.13;;
14276;SDS011;7222;57.346;12.150;2023-04-24T00:30:33;30.90;;;20.37;;
14276;SDS011;7222;57.346;12.150;2023-04-24T00:33:01;32.47;;;21.97;;
14276;SDS011;7222;57.346;12.150;2023-04-24T00:35:28;34.30;;;23.90;;
14276;SDS011;7222;57.346;12.150;2023-04-24T00:37:55;34.47;;;25.27;;
14276;SDS011;7222;57.346;12.150;2023-04-24T00:40:22;41.37;;;25.07;;
14276;SDS011;7222;57.346;12.150;2023-04-24T00:42:51;33.47;;;21.30;;
14276;SDS011;7222;57.346;12.150;2023-04-24T00:45:18;35.60;;;24.57;;
14276;SDS011;7222;57.346;12.150;2023-04-24T00:47:45;35.47;;;24.13;;
14276;SDS011;7222;57.346;12.150;2023-04-24T00:50:14;35.87;;;25.73;;
14276;SDS011;7222;57.346;12.150;2023-04-24T00:52:42;37.30;;;26.47;;
14276;SDS011;7222;57.346;12.150;2023-04-24T00:55:09;42.67;;;27.87;;
14276;SDS011;7222;57.346;12.150;2023-04-24T00:57:36;40.30;;;26.40;;
14276;SDS011;7222;57.346;12.150;2023-04-24T01:00:05;42.87;;;27.63;;
14276;SDS011;7222;57.346;12.150;2023-04-24T01:02:36;38.10;;;26.73;;
14276;SDS011;7222;57.346;12.150;2023-04-24T01:05:09;37.07;;;25.83;;
14276;SDS011;7222;57.346;12.150;2023-04-24T01:07:36;42.93;;;27.47;;
14276;SDS011;7222;57.346;12.150;2023-04-24T01:10:05;42.53;;;28.67;;
14276;SDS011;7222;57.346;12.150;2023-04-24T01:12:34;45.43;;;29.20;;
14276;SDS011;7222;57.346;12.150;2023-04-24T01:15:01;42.53;;;26.13;;
14276;SDS011;7222;57.346;12.150;2023-04-24T01:17:31;40.17;;;25.67;;
14276;SDS011;7222;57.346;12.150;2023-04-24T01:19:59;42.93;;;28.07;;
14276;SDS011;7222;57.346;12.150;2023-04-24T01:22:32;41.57;;;27.30;;
14276;SDS011;7222;57.346;12.150;2023-04-24T01:24:59;44.10;;;28.40;;
14276;SDS011;7222;57.346;12.150;2023-04-24T01:27:27;39.87;;;24.60;;
14276;SDS011;7222;57.346;12.150;2023-04-24T01:29:54;38.93;;;25.37;;
14276;SDS011;7222;57.346;12.150;2023-04-24T01:32:21;40.83;;;25.83;;
14276;SDS011;7222;57.346;12.150;2023-04-24T01:34:48;42.17;;;26.57;;
14276;SDS011;7222;57.346;12.150;2023-04-24T01:37:15;39.50;;;26.07;;
14276;SDS011;7222;57.346;12.150;2023-04-24T01:39:43;30.10;;;21.20;;
14276;SDS011;7222;57.346;12.150;2023-04-24T01:42:10;35.03;;;25.33;;
14276;SDS011;7222;57.346;12.150;2023-04-24T01:44:39;31.90;;;22.70;;
14276;SDS011;7222;57.346;12.150;2023-04-24T01:47:07;36.53;;;24.83;;
14276;SDS011;7222;57.346;12.150;2023-04-24T01:49:34;38.07;;;23.93;;
14276;SDS011;7222;57.346;12.150;2023-04-24T01:52:01;34.00;;;24.50;;
14276;SDS011;7222;57.346;12.150;2023-04-24T01:54:28;35.27;;;22.83;;
14276;SDS011;7222;57.346;12.150;2023-04-24T01:56:57;34.80;;;22.20;;
14276;SDS011;7222;57.346;12.150;2023-04-24T01:59:24;30.60;;;19.17;;
14276;SDS011;7222;57.346;12.150;2023-04-24T02:01:53;30.03;;;21.73;;
14276;SDS011;7222;57.346;12.150;2023-04-24T02:04:20;29.23;;;20.53;;
14276;SDS011;7222;57.346;12.150;2023-04-24T02:06:47;30.33;;;21.43;;
14276;SDS011;7222;57.346;12.150;2023-04-24T02:09:14;31.60;;;22.10;;
14276;SDS011;7222;57.346;12.150;2023-04-24T02:11:41;29.83;;;21.00;;
14276;SDS011;7222;57.346;12.150;2023-04-24T02:14:10;30.17;;;20.10;;
14276;SDS011;7222;57.346;12.150;2023-04-24T02:16:37;27.43;;;19.13;;
14276;SDS011;7222;57.346;12.150;2023-04-24T02:19:05;32.30;;;22.47;;
14276;SDS011;7222;57.346;12.150;2023-04-24T02:21:32;29.87;;;21.43;;
14276;SDS011;7222;57.346;12.150;2023-04-24T02:23:59;28.47;;;19.83;;
14276;SDS011;7222;57.346;12.150;2023-04-24T02:26:26;28.43;;;20.30;;
14276;SDS011;7222;57.346;12.150;2023-04-24T02:28:53;30.70;;;20.87;;
14276;SDS011;7222;57.346;12.150;2023-04-24T02:31:21;29.10;;;20.67;;
14276;SDS011;7222;57.346;12.150;2023-04-24T02:33:48;29.33;;;20.23;;
14276;SDS011;7222;57.346;12.150;2023-04-24T02:36:15;24.17;;;18.73;;
14276;SDS011;7222;57.346;12.150;2023-04-24T02:38:42;25.47;;;19.20;;
14276;SDS011;7222;57.346;12.150;2023-04-24T02:41:09;33.27;;;22.40;;
14276;SDS011;7222;57.346;12.150;2023-04-24T02:43:36;28.27;;;21.90;;
14276;SDS011;7222;57.346;12.150;2023-04-24T02:46:02;30.37;;;20.80;;
14276;SDS011;7222;57.346;12.150;2023-04-24T02:48:31;27.97;;;19.43;;
14276;SDS011;7222;57.346;12.150;2023-04-24T02:50:58;28.03;;;19.87;;
14276;SDS011;7222;57.346;12.150;2023-04-24T02:53:25;25.30;;;18.37;;
14276;SDS011;7222;57.346;12.150;2023-04-24T02:55:54;30.17;;;21.93;;
14276;SDS011;7222;57.346;12.150;2023-04-24T02:58:21;28.77;;;19.47;;
14276;SDS011;7222;57.346;12.150;2023-04-24T03:00:48;25.80;;;18.13;;
14276;SDS011;7222;57.346;12.150;2023-04-24T03:03:18;28.17;;;20.03;;
14276;SDS011;7222;57.346;12.150;2023-04-24T03:05:47;27.33;;;20.23;;
14276;SDS011;7222;57.346;12.150;2023-04-24T03:08:14;25.43;;;19.53;;
14276;SDS011;7222;57.346;12.150;2023-04-24T03:10:41;22.03;;;17.63;;
14276;SDS011;7222;57.346;12.150;2023-04-24T03:13:09;26.93;;;19.37;;
14276;SDS011;7222;57.346;12.150;2023-04-24T03:15:35;25.60;;;17.87;;
14276;SDS011;7222;57.346;12.150;2023-04-24T03:18:02;20.30;;;16.17;;
14276;SDS011;7222;57.346;12.150;2023-04-24T03:20:29;24.43;;;17.07;;
14276;SDS011;7222;57.346;12.150;2023-04-24T03:22:57;21.43;;;15.43;;
14276;SDS011;7222;57.346;12.150;2023-04-24T03:25:24;20.07;;;15.47;;
14276;SDS011;7222;57.346;12.150;2023-04-24T03:27:52;20.70;;;15.30;;
14276;SDS011;7222;57.346;12.150;2023-04-24T03:30:19;19.57;;;13.93;;
14276;SDS011;7222;57.346;12.150;2023-04-24T03:32:46;23.40;;;17.23;;
14276;SDS011;7222;57.346;12.150;2023-04-24T03:35:13;19.73;;;14.53;;
14276;SDS011;7222;57.346;12.150;2023-04-24T03:37:41;20.20;;;15.13;;
14276;SDS011;7222;57.346;12.150;2023-04-24T03:40:09;20.87;;;14.03;;
14276;SDS011;7222;57.346;12.150;2023-04-24T03:42:37;24.43;;;17.67;;
14276;SDS011;7222;57.346;12.150;2023-04-24T03:45:04;23.40;;;18.63;;
14276;SDS011;7222;57.346;12.150;2023-04-24T03:47:32;27.47;;;19.50;;
14276;SDS011;7222;57.346;12.150;2023-04-24T03:49:59;24.57;;;18.27;;
14276;SDS011;7222;57.346;12.150;2023-04-24T03:52:26;28.40;;;19.10;;
14276;SDS011;7222;57.346;12.150;2023-04-24T03:54:53;19.10;;;15.00;;
14276;SDS011;7222;57.346;12.150;2023-04-24T03:57:21;22.67;;;16.70;;
14276;SDS011;7222;57.346;12.150;2023-04-24T03:59:48;20.70;;;15.03;;
14276;SDS011;7222;57.346;12.150;2023-04-24T04:02:15;22.23;;;17.30;;
14276;SDS011;7222;57.346;12.150;2023-04-24T04:04:42;26.77;;;17.77;;
14276;SDS011;7222;57.346;12.150;2023-04-24T04:07:09;26.57;;;18.77;;
14276;SDS011;7222;57.346;12.150;2023-04-24T04:09:36;28.67;;;19.33;;
14276;SDS011;7222;57.346;12.150;2023-04-24T04:12:03;25.23;;;18.23;;
14276;SDS011;7222;57.346;12.150;2023-04-24T04:14:31;25.03;;;17.53;;
14276;SDS011;7222;57.346;12.150;2023-04-24T04:16:58;25.67;;;18.67;;
14276;SDS011;7222;57.346;12.150;2023-04-24T04:19:26;23.30;;;18.90;;
14276;SDS011;7222;57.346;12.150;2023-04-24T04:21:53;27.00;;;17.37;;
14276;SDS011;7222;57.346;12.150;2023-04-24T04:24:21;20.80;;;15.67;;
14276;SDS011;7222;57.346;12.150;2023-04-24T04:26:49;22.00;;;14.17;;
14276;SDS011;7222;57.346;12.150;2023-04-24T04:29:16;20.30;;;15.53;;
14276;SDS011;7222;57.346;12.150;2023-04-24T04:31:44;17.30;;;13.17;;
14276;SDS011;7222;57.346;12.150;2023-04-24T04:34:11;18.50;;;13.30;;
14276;SDS011;7222;57.346;12.150;2023-04-24T04:36:39;13.40;;;11.77;;
14276;SDS011;7222;57.346;12.150;2023-04-24T04:39:06;19.17;;;13.97;;
14276;SDS011;7222;57.346;12.150;2023-04-24T04:41:33;18.63;;;13.80;;
14276;SDS011;7222;57.346;12.150;2023-04-24T04:44:00;19.37;;;15.83;;
14276;SDS011;7222;57.346;12.150;2023-04-24T04:46:29;16.27;;;13.53;;
14276;SDS011;7222;57.346;12.150;2023-04-24T04:48:59;16.40;;;13.27;;
14276;SDS011;7222;57.346;12.150;2023-04-24T04:51:26;15.93;;;11.53;;
14276;SDS011;7222;57.346;12.150;2023-04-24T04:53:53;17.07;;;13.67;;
14276;SDS011;7222;57.346;12.150;2023-04-24T04:56:20;17.60;;;13.33;;
14276;SDS011;7222;57.346;12.150;2023-04-24T04:58:47;16.50;;;12.70;;
14276;SDS011;7222;57.346;12.150;2023-04-24T05:01:14;14.40;;;12.60;;
14276;SDS011;7222;57.346;12.150;2023-04-24T05:03:41;15.23;;;12.10;;
14276;SDS011;7222;57.346;12.150;2023-04-24T05:06:09;15.93;;;13.07;;
14276;SDS011;7222;57.346;12.150;2023-04-24T05:08:36;19.90;;;15.17;;
14276;SDS011;7222;57.346;12.150;2023-04-24T05:11:03;13.97;;;11.73;;
14276;SDS011;7222;57.346;12.150;2023-04-24T05:13:30;17.10;;;14.00;;
14276;SDS011;7222;57.346;12.150;2023-04-24T05:15:57;16.10;;;11.97;;
14276;SDS011;7222;57.346;12.150;2023-04-24T05:18:24;16.03;;;13.13;;
14276;SDS011;7222;57.346;12.150;2023-04-24T05:20:51;17.50;;;14.23;;
14276;SDS011;7222;57.346;12.150;2023-04-24T05:23:19;13.40;;;11.23;;
14276;SDS011;7222;57.346;12.150;2023-04-24T05:25:46;15.63;;;13.30;;
14276;SDS011;7222;57.346;12.150;2023-04-24T05:28:13;16.17;;;12.23;;
14276;SDS011;7222;57.346;12.150;2023-04-24T05:30:40;16.37;;;13.27;;
14276;SDS011;7222;57.346;12.150;2023-04-24T05:33:07;17.60;;;12.93;;
14276;SDS011;7222;57.346;12.150;2023-04-24T05:35:35;15.40;;;11.57;;
14276;SDS011;7222;57.346;12.150;2023-04-24T05:38:02;14.47;;;12.00;;
14276;SDS011;7222;57.346;12.150;2023-04-24T05:40:30;12.17;;;10.87;;
14276;SDS011;7222;57.346;12.150;2023-04-24T05:42:57;12.23;;;10.07;;
14276;SDS011;7222;57.346;12.150;2023-04-24T05:45:24;14.87;;;11.40;;
14276;SDS011;7222;57.346;12.150;2023-04-24T05:47:52;16.63;;;13.00;;
14276;SDS011;7222;57.346;12.150;2023-04-24T05:50:18;15.80;;;11.80;;
14276;SDS011;7222;57.346;12.150;2023-04-24T05:52:45;15.87;;;11.93;;
14276;SDS011;7222;57.346;12.150;2023-04-24T05:55:12;12.10;;;10.50;;
14276;SDS011;7222;57.346;12.150;2023-04-24T05:57:43;15.17;;;12.23;;
14276;SDS011;7222;57.346;12.150;2023-04-24T06:00:11;13.80;;;12.00;;
14276;SDS011;7222;57.346;12.150;2023-04-24T06:02:39;12.37;;;10.57;;
14276;SDS011;7222;57.346;12.150;2023-04-24T06:05:06;14.63;;;10.20;;
14276;SDS011;7222;57.346;12.150;2023-04-24T06:07:34;13.20;;;11.27;;
14276;SDS011;7222;57.346;12.150;2023-04-24T06:10:01;11.33;;;10.00;;
14276;SDS011;7222;57.346;12.150;2023-04-24T06:12:28;15.83;;;12.03;;
14276;SDS011;7222;57.346;12.150;2023-04-24T06:14:56;15.37;;;11.97;;
14276;SDS011;7222;57.346;12.150;2023-04-24T06:17:23;13.17;;;10.47;;
14276;SDS011;7222;57.346;12.150;2023-04-24T06:19:50;15.30;;;11.97;;
14276;SDS011;7222;57.346;12.150;2023-04-24T06:22:17;17.47;;;13.10;;
14276;SDS011;7222;57.346;12.150;2023-04-24T06:24:44;14.30;;;11.33;;
14276;SDS011;7222;57.346;12.150;2023-04-24T06:27:12;13.60;;;11.87;;
14276;SDS011;7222;57.346;12.150;2023-04-24T06:29:39;15.83;;;11.50;;
14276;SDS011;7222;57.346;12.150;2023-04-24T06:32:07;13.43;;;11.37;;
14276;SDS011;7222;57.346;12.150;2023-04-24T06:34:35;19.70;;;13.27;;
14276;SDS011;7222;57.346;12.150;2023-04-24T06:37:02;13.57;;;10.93;;
14276;SDS011;7222;57.346;12.150;2023-04-24T06:39:28;15.43;;;11.57;;
14276;SDS011;7222;57.346;12.150;2023-04-24T06:41:55;14.73;;;11.17;;
14276;SDS011;7222;57.346;12.150;2023-04-24T06:44:22;20.83;;;14.57;;
14276;SDS011;7222;57.346;12.150;2023-04-24T06:46:50;17.27;;;13.23;;
14276;SDS011;7222;57.346;12.150;2023-04-24T06:49:18;17.60;;;12.93;;
14276;SDS011;7222;57.346;12.150;2023-04-24T06:51:45;15.70;;;11.93;;
14276;SDS011;7222;57.346;12.150;2023-04-24T06:54:12;13.53;;;11.67;;
14276;SDS011;7222;57.346;12.150;2023-04-24T06:56:39;18.70;;;13.77;;
14276;SDS011;7222;57.346;12.150;2023-04-24T06:59:05;21.60;;;16.60;;
14276;SDS011;7222;57.346;12.150;2023-04-24T07:01:33;14.93;;;11.70;;
14276;SDS011;7222;57.346;12.150;2023-04-24T07:04:00;17.03;;;11.53;;
14276;SDS011;7222;57.346;12.150;2023-04-24T07:06:28;15.47;;;13.10;;
14276;SDS011;7222;57.346;12.150;2023-04-24T07:08:56;17.20;;;14.07;;
14276;SDS011;7222;57.346;12.150;2023-04-24T07:11:24;17.47;;;15.40;;
14276;SDS011;7222;57.346;12.150;2023-04-24T07:13:54;18.33;;;14.37;;
14276;SDS011;7222;57.346;12.150;2023-04-24T07:16:21;13.60;;;11.17;;
14276;SDS011;7222;57.346;12.150;2023-04-24T07:18:48;14.00;;;10.97;;
14276;SDS011;7222;57.346;12.150;2023-04-24T07:21:15;14.97;;;11.90;;
14276;SDS011;7222;57.346;12.150;2023-04-24T07:23:43;16.37;;;13.40;;
14276;SDS011;7222;57.346;12.150;2023-04-24T07:26:10;15.37;;;12.83;;
14276;SDS011;7222;57.346;12.150;2023-04-24T07:28:37;15.33;;;13.10;;
14276;SDS011;7222;57.346;12.150;2023-04-24T07:31:03;15.63;;;12.70;;
14276;SDS011;7222;57.346;12.150;2023-04-24T07:33:30;15.37;;;12.77;;
14276;SDS011;7222;57.346;12.150;2023-04-24T07:35:58;15.77;;;12.87;;
14276;SDS011;7222;57.346;12.150;2023-04-24T07:38:25;13.50;;;10.77;;
14276;SDS011;7222;57.346;12.150;2023-04-24T07:40:54;11.87;;;10.63;;
14276;SDS011;7222;57.346;12.150;2023-04-24T07:43:21;18.77;;;14.03;;
14276;SDS011;7222;57.346;12.150;2023-04-24T07:45:49;13.53;;;11.27;;
14276;SDS011;7222;57.346;12.150;2023-04-24T07:48:16;13.00;;;11.00;;
14276;SDS011;7222;57.346;12.150;2023-04-24T07:50:43;14.60;;;13.03;;
14276;SDS011;7222;57.346;12.150;2023-04-24T07:53:10;13.20;;;10.67;;
14276;SDS011;7222;57.346;12.150;2023-04-24T07:55:37;18.47;;;14.90;;
14276;SDS011;7222;57.346;12.150;2023-04-24T07:58:05;16.57;;;12.17;;
14276;SDS011;7222;57.346;12.150;2023-04-24T08:00:32;15.10;;;11.40;;
14276;SDS011;7222;57.346;12.150;2023-04-24T08:03:00;14.93;;;12.90;;
14276;SDS011;7222;57.346;12.150;2023-04-24T08:05:27;17.23;;;13.43;;
14276;SDS011;7222;57.346;12.150;2023-04-24T08:07:54;16.33;;;12.27;;
14276;SDS011;7222;57.346;12.150;2023-04-24T08:10:22;13.73;;;11.20;;
14276;SDS011;7222;57.346;12.150;2023-04-24T08:12:49;14.07;;;11.70;;
14276;SDS011;7222;57.346;12.150;2023-04-24T08:15:17;14.50;;;11.80;;
14276;SDS011;7222;57.346;12.150;2023-04-24T08:17:44;14.80;;;12.40;;
14276;SDS011;7222;57.346;12.150;2023-04-24T08:20:12;13.37;;;9.60;;
14276;SDS011;7222;57.346;12.150;2023-04-24T08:22:39;14.47;;;12.87;;
14276;SDS011;7222;57.346;12.150;2023-04-24T08:25:07;13.67;;;11.73;;
14276;SDS011;7222;57.346;12.150;2023-04-24T08:27:34;16.00;;;12.30;;
14276;SDS011;7222;57.346;12.150;2023-04-24T08:30:02;13.10;;;10.47;;
14276;SDS011;7222;57.346;12.150;2023-04-24T08:32:31;16.77;;;14.43;;
14276;SDS011;7222;57.346;12.150;2023-04-24T08:34:58;13.13;;;11.27;;
14276;SDS011;7222;57.346;12.150;2023-04-24T08:37:26;12.23;;;10.10;;
14276;SDS011;7222;57.346;12.150;2023-04-24T08:39:53;11.30;;;9.47;;
14276;SDS011;7222;57.346;12.150;2023-04-24T08:42:21;9.53;;;8.53;;
14276;SDS011;7222;57.346;12.150;2023-04-24T08:44:48;10.77;;;9.73;;
14276;SDS011;7222;57.346;12.150;2023-04-24T08:47:16;10.63;;;9.23;;
14276;SDS011;7222;57.346;12.150;2023-04-24T08:49:46;11.03;;;9.90;;
14276;SDS011;7222;57.346;12.150;2023-04-24T08:52:15;11.00;;;9.20;;
14276;SDS011;7222;57.346;12.150;2023-04-24T08:54:45;10.83;;;9.07;;
14276;SDS011;7222;57.346;12.150;2023-04-24T08:57:13;11.63;;;9.93;;
14276;SDS011;7222;57.346;12.150;2023-04-24T08:59:41;12.33;;;10.63;;
14276;SDS011;7222;57.346;12.150;2023-04-24T09:02:09;11.43;;;9.50;;
14276;SDS011;7222;57.346;12.150;2023-04-24T09:04:37;9.10;;;7.63;;
14276;SDS011;7222;57.346;12.150;2023-04-24T09:07:06;11.00;;;9.77;;
14276;SDS011;7222;57.346;12.150;2023-04-24T09:09:34;9.80;;;8.90;;
14276;SDS011;7222;57.346;12.150;2023-04-24T09:12:01;11.83;;;10.50;;
14276;SDS011;7222;57.346;12.150;2023-04-24T09:14:29;11.97;;;10.70;;
14276;SDS011;7222;57.346;12.150;2023-04-24T09:16:57;8.93;;;7.83;;
14276;SDS011;7222;57.346;12.150;2023-04-24T09:19:24;10.07;;;9.00;;
14276;SDS011;7222;57.346;12.150;2023-04-24T09:21:50;13.37;;;11.97;;
14276;SDS011;7222;57.346;12.150;2023-04-24T09:24:21;11.10;;;9.90;;
14276;SDS011;7222;57.346;12.150;2023-04-24T09:26:48;9.17;;;8.27;;
14276;SDS011;7222;57.346;12.150;2023-04-24T09:29:23;10.27;;;9.17;;
14276;SDS011;7222;57.346;12.150;2023-04-24T09:31:50;10.43;;;9.37;;
14276;SDS011;7222;57.346;12.150;2023-04-24T09:34:20;10.27;;;8.03;;
14276;SDS011;7222;57.346;12.150;2023-04-24T09:36:48;9.93;;;8.70;;
14276;SDS011;7222;57.346;12.150;2023-04-24T09:39:16;9.97;;;8.97;;
14276;SDS011;7222;57.346;12.150;2023-04-24T09:41:47;9.93;;;8.93;;
14276;SDS011;7222;57.346;12.150;2023-04-24T09:44:15;8.00;;;7.17;;
14276;SDS011;7222;57.346;12.150;2023-04-24T09:46:45;9.97;;;8.63;;
14276;SDS011;7222;57.346;12.150;2023-04-24T09:49:16;10.63;;;8.70;;
14276;SDS011;7222;57.346;12.150;2023-04-24T09:51:48;9.33;;;8.43;;
14276;SDS011;7222;57.346;12.150;2023-04-24T09:54:16;7.43;;;6.40;;
14276;SDS011;7222;57.346;12.150;2023-04-24T09:56:45;11.73;;;10.37;;
14276;SDS011;7222;57.346;12.150;2023-04-24T09:59:15;9.00;;;8.10;;
14276;SDS011;7222;57.346;12.150;2023-04-24T10:01:43;9.53;;;7.90;;
14276;SDS011;7222;57.346;12.150;2023-04-24T10:04:20;12.30;;;10.40;;
14276;SDS011;7222;57.346;12.150;2023-04-24T10:06:49;8.03;;;7.13;;
14276;SDS011;7222;57.346;12.150;2023-04-24T10:09:17;8.47;;;7.67;;
14276;SDS011;7222;57.346;12.150;2023-04-24T10:11:47;10.70;;;8.50;;
14276;SDS011;7222;57.346;12.150;2023-04-24T10:14:15;9.63;;;8.73;;
14276;SDS011;7222;57.346;12.150;2023-04-24T10:16:44;7.67;;;6.20;;
14276;SDS011;7222;57.346;12.150;2023-04-24T10:19:12;7.67;;;6.97;;
14276;SDS011;7222;57.346;12.150;2023-04-24T10:21:41;8.10;;;6.53;;
14276;SDS011;7222;57.346;12.150;2023-04-24T10:24:11;6.37;;;5.77;;
14276;SDS011;7222;57.346;12.150;2023-04-24T10:26:40;6.90;;;6.20;;
14276;SDS011;7222;57.346;12.150;2023-04-24T10:29:08;8.23;;;7.50;;
14276;SDS011;7222;57.346;12.150;2023-04-24T10:31:37;5.40;;;4.90;;
14276;SDS011;7222;57.346;12.150;2023-04-24T10:34:05;7.63;;;6.63;;
14276;SDS011;7222;57.346;12.150;2023-04-24T10:36:34;7.80;;;7.00;;
14276;SDS011;7222;57.346;12.150;2023-04-24T10:39:03;7.23;;;6.60;;
14276;SDS011;7222;57.346;12.150;2023-04-24T10:41:33;8.37;;;7.57;;
14276;SDS011;7222;57.346;12.150;2023-04-24T10:44:04;6.50;;;5.90;;
14276;SDS011;7222;57.346;12.150;2023-04-24T10:46:33;6.77;;;6.17;;
14276;SDS011;7222;57.346;12.150;2023-04-24T10:49:03;7.23;;;6.63;;
14276;SDS011;7222;57.346;12.150;2023-04-24T10:51:43;7.80;;;7.00;;
14276;SDS011;7222;57.346;12.150;2023-04-24T10:54:22;5.57;;;5.17;;
14276;SDS011;7222;57.346;12.150;2023-04-24T10:56:50;6.33;;;5.77;;
14276;SDS011;7222;57.346;12.150;2023-04-24T10:59:24;7.57;;;6.27;;
14276;SDS011;7222;57.346;12.150;2023-04-24T11:01:55;6.17;;;5.57;;
14276;SDS011;7222;57.346;12.150;2023-04-24T11:04:33;7.10;;;6.50;;
14276;SDS011;7222;57.346;12.150;2023-04-24T11:07:02;5.77;;;5.27;;
14276;SDS011;7222;57.346;12.150;2023-04-24T11:09:30;6.60;;;6.00;;
14276;SDS011;7222;57.346;12.150;2023-04-24T11:12:03;4.80;;;4.30;;
14276;SDS011;7222;57.346;12.150;2023-04-24T11:17:28;5.57;;;5.17;;
14276;SDS011;7222;57.346;12.150;2023-04-24T11:20:00;5.13;;;4.70;;
14276;SDS011;7222;57.346;12.150;2023-04-24T11:22:28;5.60;;;5.10;;
14276;SDS011;7222;57.346;12.150;2023-04-24T11:24:59;6.40;;;5.80;;
14276;SDS011;7222;57.346;12.150;2023-04-24T11:27:29;5.77;;;5.27;;
14276;SDS011;7222;57.346;12.150;2023-04-24T11:30:02;5.40;;;5.00;;
14276;SDS011;7222;57.346;12.150;2023-04-24T11:32:34;5.73;;;5.03;;
14276;SDS011;7222;57.346;12.150;2023-04-24T11:35:02;4.77;;;4.37;;
14276;SDS011;7222;57.346;12.150;2023-04-24T11:37:33;5.47;;;5.00;;
14276;SDS011;7222;57.346;12.150;2023-04-24T11:40:02;5.80;;;5.30;;
14276;SDS011;7222;57.346;12.150;2023-04-24T11:42:33;5.43;;;4.93;;
14276;SDS011;7222;57.346;12.150;2023-04-24T11:45:00;5.97;;;5.30;;
14276;SDS011;7222;57.346;12.150;2023-04-24T11:47:29;5.70;;;4.87;;
14276;SDS011;7222;57.346;12.150;2023-04-24T11:49:59;5.30;;;4.87;;
14276;SDS011;7222;57.346;12.150;2023-04-24T11:52:26;5.60;;;5.10;;
14276;SDS011;7222;57.346;12.150;2023-04-24T11:54:54;4.60;;;4.20;;
14276;SDS011;7222;57.346;12.150;2023-04-24T11:57:21;4.40;;;4.00;;
14276;SDS011;7222;57.346;12.150;2023-04-24T11:59:51;5.67;;;5.17;;
14276;SDS011;7222;57.346;12.150;2023-04-24T12:02:22;5.50;;;5.00;;
14276;SDS011;7222;57.346;12.150;2023-04-24T12:04:51;6.43;;;5.93;;
14276;SDS011;7222;57.346;12.150;2023-04-24T12:07:18;5.50;;;5.10;;
14276;SDS011;7222;57.346;12.150;2023-04-24T12:09:46;5.07;;;4.63;;
14276;SDS011;7222;57.346;12.150;2023-04-24T12:12:15;6.20;;;5.30;;
14276;SDS011;7222;57.346;12.150;2023-04-24T12:14:43;5.77;;;5.27;;
14276;SDS011;7222;57.346;12.150;2023-04-24T12:17:11;5.20;;;4.70;;
14276;SDS011;7222;57.346;12.150;2023-04-24T12:19:44;6.23;;;5.73;;
14276;SDS011;7222;57.346;12.150;2023-04-24T12:22:13;5.07;;;4.70;;
14276;SDS011;7222;57.346;12.150;2023-04-24T12:27:26;6.53;;;5.93;;
14276;SDS011;7222;57.346;12.150;2023-04-24T12:29:55;5.87;;;5.47;;
14276;SDS011;7222;57.346;12.150;2023-04-24T12:32:23;6.50;;;6.00;;
14276;SDS011;7222;57.346;12.150;2023-04-24T12:34:51;7.53;;;6.83;;
14276;SDS011;7222;57.346;12.150;2023-04-24T12:37:19;7.87;;;7.17;;
14276;SDS011;7222;57.346;12.150;2023-04-24T12:39:59;7.23;;;6.60;;
14276;SDS011;7222;57.346;12.150;2023-04-24T12:42:28;8.30;;;7.50;;
14276;SDS011;7222;57.346;12.150;2023-04-24T12:44:56;8.17;;;7.47;;
14276;SDS011;7222;57.346;12.150;2023-04-24T12:47:25;9.17;;;8.27;;
14276;SDS011;7222;57.346;12.150;2023-04-24T12:49:52;8.57;;;7.80;;
14276;SDS011;7222;57.346;12.150;2023-04-24T12:52:21;7.20;;;6.60;;
14276;SDS011;7222;57.346;12.150;2023-04-24T12:54:49;7.80;;;7.10;;
14276;SDS011;7222;57.346;12.150;2023-04-24T12:57:17;8.90;;;8.10;;
14276;SDS011;7222;57.346;12.150;2023-04-24T12:59:44;9.57;;;8.67;;
14276;SDS011;7222;57.346;12.150;2023-04-24T13:02:10;8.77;;;7.87;;
14276;SDS011;7222;57.346;12.150;2023-04-24T13:04:37;8.90;;;7.60;;
14276;SDS011;7222;57.346;12.150;2023-04-24T13:07:04;8.00;;;7.30;;
14276;SDS011;7222;57.346;12.150;2023-04-24T13:09:34;8.87;;;7.97;;
14276;SDS011;7222;57.346;12.150;2023-04-24T13:12:01;10.07;;;9.13;;
14276;SDS011;7222;57.346;12.150;2023-04-24T13:14:30;6.90;;;5.87;;
14276;SDS011;7222;57.346;12.150;2023-04-24T13:16:57;9.47;;;8.57;;
14276;SDS011;7222;57.346;12.150;2023-04-24T13:19:25;9.47;;;8.77;;
14276;SDS011;7222;57.346;12.150;2023-04-24T13:21:53;9.13;;;8.40;;
14276;SDS011;7222;57.346;12.150;2023-04-24T13:24:22;9.00;;;8.20;;
14276;SDS011;7222;57.346;12.150;2023-04-24T13:26:51;10.00;;;8.37;;
14276;SDS011;7222;57.346;12.150;2023-04-24T13:29:19;10.17;;;9.23;;
14276;SDS011;7222;57.346;12.150;2023-04-24T13:31:46;9.90;;;9.00;;
14276;SDS011;7222;57.346;12.150;2023-04-24T13:34:14;8.30;;;7.50;;
14276;SDS011;7222;57.346;12.150;2023-04-24T13:36:41;9.80;;;8.90;;
14276;SDS011;7222;57.346;12.150;2023-04-24T13:39:08;9.40;;;8.20;;
14276;SDS011;7222;57.346;12.150;2023-04-24T13:41:35;9.73;;;8.10;;
14276;SDS011;7222;57.346;12.150;2023-04-24T13:44:04;9.57;;;8.67;;
14276;SDS011;7222;57.346;12.150;2023-04-24T13:46:31;9.63;;;8.80;;
14276;SDS011;7222;57.346;12.150;2023-04-24T13:48:58;10.60;;;9.50;;
14276;SDS011;7222;57.346;12.150;2023-04-24T13:51:26;9.27;;;8.47;;
14276;SDS011;7222;57.346;12.150;2023-04-24T13:53:53;10.03;;;9.13;;
14276;SDS011;7222;57.346;12.150;2023-04-24T13:56:20;10.03;;;8.97;;
14276;SDS011;7222;57.346;12.150;2023-04-24T13:58:48;10.27;;;9.23;;
14276;SDS011;7222;57.346;12.150;2023-04-24T14:01:16;9.73;;;8.83;;
14276;SDS011;7222;57.346;12.150;2023-04-24T14:03:44;8.97;;;8.23;;
14276;SDS011;7222;57.346;12.150;2023-04-24T14:06:10;10.13;;;9.17;;
14276;SDS011;7222;57.346;12.150;2023-04-24T14:08:37;8.90;;;8.10;;
14276;SDS011;7222;57.346;12.150;2023-04-24T14:11:04;9.90;;;8.80;;
14276;SDS011;7222;57.346;12.150;2023-04-24T14:13:31;9.07;;;8.27;;
14276;SDS011;7222;57.346;12.150;2023-04-24T14:15:59;9.63;;;8.67;;
14276;SDS011;7222;57.346;12.150;2023-04-24T14:18:27;8.60;;;7.70;;
14276;SDS011;7222;57.346;12.150;2023-04-24T14:20:54;9.03;;;8.23;;
14276;SDS011;7222;57.346;12.150;2023-04-24T14:23:21;8.97;;;8.07;;
14276;SDS011;7222;57.346;12.150;2023-04-24T14:25:48;8.00;;;7.27;;
14276;SDS011;7222;57.346;12.150;2023-04-24T14:28:17;7.50;;;6.80;;
14276;SDS011;7222;57.346;12.150;2023-04-24T14:30:44;8.00;;;7.30;;
14276;SDS011;7222;57.346;12.150;2023-04-24T14:33:11;8.27;;;7.47;;
14276;SDS011;7222;57.346;12.150;2023-04-24T14:35:39;7.60;;;6.80;;
14276;SDS011;7222;57.346;12.150;2023-04-24T14:38:08;8.27;;;7.47;;
14276;SDS011;7222;57.346;12.150;2023-04-24T14:40:36;9.10;;;8.37;;